sensor_id;sensor_type;location;lat;lon;timestamp;P1;durP1;ratioP1;P2;durP2;ratioP2
75847;SDS011;65750;47.540;19.090;2023-05-23T00:02:11;2.12;;;1.55;;
75847;SDS011;65750;47.540;19.090;2023-05-23T00:04:40;2.37;;;1.37;;
75847;SDS011;65750;47.540;19.090;2023-05-23T00:07:08;2.20;;;1.42;;
75847;SDS011;65750;47.540;19.090;2023-05-23T00:09:37;2.28;;;1.23;;
75847;SDS011;65750;47.540;19.090;2023-05-23T00:12:04;2.05;;;1.50;;
75847;SDS011;65750;47.540;19.090;2023-05-23T00:14:32;2.15;;;1.60;;
75847;SDS011;65750;47.540;19.090;2023-05-23T00:16:59;2.10;;;1.33;;
75847;SDS011;65750;47.540;19.090;2023-05-23T00:19:27;2.10;;;1.30;;
75847;SDS011;65750;47.540;19.090;2023-05-23T00:21:54;2.40;;;1.50;;
75847;SDS011;65750;47.540;19.090;2023-05-23T00:24:24;2.10;;;1.40;;
75847;SDS011;65750;47.540;19.090;2023-05-23T00:26:53;2.10;;;1.30;;
75847;SDS011;65750;47.540;19.090;2023-05-23T00:29:20;1.87;;;1.20;;
75847;SDS011;65750;47.540;19.090;2023-05-23T00:31:47;1.70;;;1.02;;
75847;SDS011;65750;47.540;19.090;2023-05-23T00:34:15;1.90;;;1.15;;
75847;SDS011;65750;47.540;19.090;2023-05-23T00:36:43;1.95;;;1.10;;
75847;SDS011;65750;47.540;19.090;2023-05-23T00:39:12;2.10;;;1.20;;
75847;SDS011;65750;47.540;19.090;2023-05-23T00:41:44;1.70;;;1.10;;
75847;SDS011;65750;47.540;19.090;2023-05-23T00:44:13;1.87;;;1.10;;
75847;SDS011;65750;47.540;19.090;2023-05-23T00:46:40;2.10;;;1.30;;
75847;SDS011;65750;47.540;19.090;2023-05-23T00:49:09;1.98;;;1.20;;
75847;SDS011;65750;47.540;19.090;2023-05-23T00:51:38;2.00;;;1.00;;
75847;SDS011;65750;47.540;19.090;2023-05-23T00:54:07;1.87;;;1.20;;
75847;SDS011;65750;47.540;19.090;2023-05-23T00:56:35;1.90;;;1.20;;
75847;SDS011;65750;47.540;19.090;2023-05-23T00:59:02;2.00;;;1.35;;
75847;SDS011;65750;47.540;19.090;2023-05-23T01:01:30;2.20;;;1.30;;
75847;SDS011;65750;47.540;19.090;2023-05-23T01:04:01;2.00;;;1.30;;
75847;SDS011;65750;47.540;19.090;2023-05-23T01:06:28;1.80;;;1.10;;
75847;SDS011;65750;47.540;19.090;2023-05-23T01:08:57;1.70;;;1.05;;
75847;SDS011;65750;47.540;19.090;2023-05-23T01:11:29;1.95;;;1.37;;
75847;SDS011;65750;47.540;19.090;2023-05-23T01:14:01;1.90;;;1.10;;
75847;SDS011;65750;47.540;19.090;2023-05-23T01:16:34;1.92;;;1.30;;
75847;SDS011;65750;47.540;19.090;2023-05-23T01:19:07;1.63;;;1.10;;
75847;SDS011;65750;47.540;19.090;2023-05-23T01:21:45;1.70;;;1.10;;
75847;SDS011;65750;47.540;19.090;2023-05-23T01:24:28;1.73;;;1.17;;
75847;SDS011;65750;47.540;19.090;2023-05-23T01:27:05;1.98;;;1.17;;
75847;SDS011;65750;47.540;19.090;2023-05-23T01:29:37;1.70;;;1.00;;
75847;SDS011;65750;47.540;19.090;2023-05-23T01:32:07;2.00;;;1.20;;
75847;SDS011;65750;47.540;19.090;2023-05-23T01:34:38;1.55;;;0.88;;
75847;SDS011;65750;47.540;19.090;2023-05-23T01:37:06;1.80;;;1.10;;
75847;SDS011;65750;47.540;19.090;2023-05-23T01:39:39;2.08;;;1.33;;
75847;SDS011;65750;47.540;19.090;2023-05-23T01:42:06;2.20;;;1.52;;
75847;SDS011;65750;47.540;19.090;2023-05-23T01:44:34;1.83;;;1.20;;
75847;SDS011;65750;47.540;19.090;2023-05-23T01:47:04;1.90;;;1.40;;
75847;SDS011;65750;47.540;19.090;2023-05-23T01:49:32;1.98;;;1.40;;
75847;SDS011;65750;47.540;19.090;2023-05-23T01:52:00;1.90;;;1.20;;
75847;SDS011;65750;47.540;19.090;2023-05-23T01:54:28;2.17;;;1.42;;
75847;SDS011;65750;47.540;19.090;2023-05-23T01:56:56;2.00;;;1.27;;
75847;SDS011;65750;47.540;19.090;2023-05-23T01:59:24;2.17;;;1.35;;
75847;SDS011;65750;47.540;19.090;2023-05-23T02:01:53;1.77;;;1.17;;
75847;SDS011;65750;47.540;19.090;2023-05-23T02:04:22;2.10;;;1.42;;
75847;SDS011;65750;47.540;19.090;2023-05-23T02:06:50;1.87;;;1.20;;
75847;SDS011;65750;47.540;19.090;2023-05-23T02:09:17;2.33;;;1.60;;
75847;SDS011;65750;47.540;19.090;2023-05-23T02:11:44;2.58;;;1.60;;
75847;SDS011;65750;47.540;19.090;2023-05-23T02:14:11;2.35;;;1.60;;
75847;SDS011;65750;47.540;19.090;2023-05-23T02:16:39;2.10;;;1.35;;
75847;SDS011;65750;47.540;19.090;2023-05-23T02:19:06;2.62;;;1.65;;
75847;SDS011;65750;47.540;19.090;2023-05-23T02:21:34;2.97;;;1.40;;
75847;SDS011;65750;47.540;19.090;2023-05-23T02:24:02;2.28;;;1.50;;
75847;SDS011;65750;47.540;19.090;2023-05-23T02:26:29;2.05;;;1.42;;
75847;SDS011;65750;47.540;19.090;2023-05-23T02:28:56;2.22;;;1.58;;
75847;SDS011;65750;47.540;19.090;2023-05-23T02:31:23;2.47;;;1.67;;
75847;SDS011;65750;47.540;19.090;2023-05-23T02:33:50;2.20;;;1.60;;
75847;SDS011;65750;47.540;19.090;2023-05-23T02:36:18;2.20;;;1.42;;
75847;SDS011;65750;47.540;19.090;2023-05-23T02:38:47;2.22;;;1.60;;
75847;SDS011;65750;47.540;19.090;2023-05-23T02:41:15;2.30;;;1.50;;
75847;SDS011;65750;47.540;19.090;2023-05-23T02:43:44;2.25;;;1.55;;
75847;SDS011;65750;47.540;19.090;2023-05-23T02:46:12;2.30;;;1.57;;
75847;SDS011;65750;47.540;19.090;2023-05-23T02:48:39;2.20;;;1.50;;
75847;SDS011;65750;47.540;19.090;2023-05-23T02:51:06;2.28;;;1.75;;
75847;SDS011;65750;47.540;19.090;2023-05-23T02:53:33;2.28;;;1.52;;
75847;SDS011;65750;47.540;19.090;2023-05-23T02:56:02;2.40;;;1.70;;
75847;SDS011;65750;47.540;19.090;2023-05-23T02:58:29;2.53;;;1.60;;
75847;SDS011;65750;47.540;19.090;2023-05-23T03:01:00;2.20;;;1.65;;
75847;SDS011;65750;47.540;19.090;2023-05-23T03:03:27;2.10;;;1.45;;
75847;SDS011;65750;47.540;19.090;2023-05-23T03:05:56;2.50;;;1.70;;
75847;SDS011;65750;47.540;19.090;2023-05-23T03:08:23;2.25;;;1.70;;
75847;SDS011;65750;47.540;19.090;2023-05-23T03:10:50;2.20;;;1.47;;
75847;SDS011;65750;47.540;19.090;2023-05-23T03:13:19;2.28;;;1.40;;
75847;SDS011;65750;47.540;19.090;2023-05-23T03:15:46;2.62;;;2.00;;
75847;SDS011;65750;47.540;19.090;2023-05-23T03:18:13;2.47;;;1.60;;
75847;SDS011;65750;47.540;19.090;2023-05-23T03:20:41;2.45;;;1.90;;
75847;SDS011;65750;47.540;19.090;2023-05-23T03:23:08;2.10;;;1.40;;
75847;SDS011;65750;47.540;19.090;2023-05-23T03:25:35;2.58;;;1.80;;
75847;SDS011;65750;47.540;19.090;2023-05-23T03:28:03;2.80;;;1.85;;
75847;SDS011;65750;47.540;19.090;2023-05-23T03:30:31;2.53;;;1.80;;
75847;SDS011;65750;47.540;19.090;2023-05-23T03:32:59;2.40;;;1.70;;
75847;SDS011;65750;47.540;19.090;2023-05-23T03:35:28;2.20;;;1.60;;
75847;SDS011;65750;47.540;19.090;2023-05-23T03:37:55;2.85;;;1.77;;
75847;SDS011;65750;47.540;19.090;2023-05-23T03:40:22;2.65;;;1.80;;
75847;SDS011;65750;47.540;19.090;2023-05-23T03:43:00;2.47;;;1.70;;
75847;SDS011;65750;47.540;19.090;2023-05-23T03:45:28;2.45;;;1.70;;
75847;SDS011;65750;47.540;19.090;2023-05-23T03:47:57;2.10;;;1.43;;
75847;SDS011;65750;47.540;19.090;2023-05-23T03:50:24;2.20;;;1.60;;
75847;SDS011;65750;47.540;19.090;2023-05-23T03:52:51;2.45;;;1.90;;
75847;SDS011;65750;47.540;19.090;2023-05-23T03:55:19;2.40;;;1.70;;
75847;SDS011;65750;47.540;19.090;2023-05-23T03:57:49;2.35;;;1.67;;
75847;SDS011;65750;47.540;19.090;2023-05-23T04:00:16;2.90;;;1.80;;
75847;SDS011;65750;47.540;19.090;2023-05-23T04:02:44;3.10;;;1.98;;
75847;SDS011;65750;47.540;19.090;2023-05-23T04:05:14;2.70;;;1.80;;
75847;SDS011;65750;47.540;19.090;2023-05-23T04:07:41;2.55;;;1.90;;
75847;SDS011;65750;47.540;19.090;2023-05-23T04:10:09;2.37;;;1.83;;
75847;SDS011;65750;47.540;19.090;2023-05-23T04:12:37;2.30;;;1.60;;
75847;SDS011;65750;47.540;19.090;2023-05-23T04:15:07;2.40;;;1.70;;
75847;SDS011;65750;47.540;19.090;2023-05-23T04:17:36;2.65;;;1.87;;
75847;SDS011;65750;47.540;19.090;2023-05-23T04:20:05;2.42;;;1.70;;
75847;SDS011;65750;47.540;19.090;2023-05-23T04:22:35;2.70;;;1.90;;
75847;SDS011;65750;47.540;19.090;2023-05-23T04:25:04;2.80;;;1.97;;
75847;SDS011;65750;47.540;19.090;2023-05-23T04:27:32;2.55;;;1.92;;
75847;SDS011;65750;47.540;19.090;2023-05-23T04:29:59;3.17;;;1.80;;
75847;SDS011;65750;47.540;19.090;2023-05-23T04:32:33;2.50;;;1.90;;
75847;SDS011;65750;47.540;19.090;2023-05-23T04:35:01;2.65;;;1.90;;
75847;SDS011;65750;47.540;19.090;2023-05-23T04:37:29;2.40;;;1.60;;
75847;SDS011;65750;47.540;19.090;2023-05-23T04:39:59;3.45;;;2.00;;
75847;SDS011;65750;47.540;19.090;2023-05-23T04:42:27;3.05;;;2.10;;
75847;SDS011;65750;47.540;19.090;2023-05-23T04:44:54;2.45;;;1.75;;
75847;SDS011;65750;47.540;19.090;2023-05-23T04:47:24;2.70;;;2.00;;
75847;SDS011;65750;47.540;19.090;2023-05-23T04:49:53;2.93;;;2.10;;
75847;SDS011;65750;47.540;19.090;2023-05-23T04:52:21;3.25;;;2.10;;
75847;SDS011;65750;47.540;19.090;2023-05-23T04:54:50;2.92;;;1.77;;
75847;SDS011;65750;47.540;19.090;2023-05-23T04:57:20;3.30;;;2.00;;
75847;SDS011;65750;47.540;19.090;2023-05-23T04:59:47;2.87;;;2.10;;
75847;SDS011;65750;47.540;19.090;2023-05-23T05:02:15;2.77;;;2.00;;
75847;SDS011;65750;47.540;19.090;2023-05-23T05:04:42;2.50;;;1.80;;
75847;SDS011;65750;47.540;19.090;2023-05-23T05:07:10;3.00;;;2.05;;
75847;SDS011;65750;47.540;19.090;2023-05-23T05:09:38;2.90;;;1.90;;
75847;SDS011;65750;47.540;19.090;2023-05-23T05:12:06;3.08;;;2.10;;
75847;SDS011;65750;47.540;19.090;2023-05-23T05:14:35;2.70;;;1.97;;
75847;SDS011;65750;47.540;19.090;2023-05-23T05:17:03;2.60;;;1.90;;
75847;SDS011;65750;47.540;19.090;2023-05-23T05:19:31;2.85;;;2.12;;
75847;SDS011;65750;47.540;19.090;2023-05-23T05:21:58;2.67;;;1.98;;
75847;SDS011;65750;47.540;19.090;2023-05-23T05:24:26;4.10;;;2.20;;
75847;SDS011;65750;47.540;19.090;2023-05-23T05:26:53;2.73;;;1.90;;
75847;SDS011;65750;47.540;19.090;2023-05-23T05:29:21;3.33;;;2.10;;
75847;SDS011;65750;47.540;19.090;2023-05-23T05:31:49;2.80;;;2.15;;
75847;SDS011;65750;47.540;19.090;2023-05-23T05:34:17;2.55;;;1.95;;
75847;SDS011;65750;47.540;19.090;2023-05-23T05:36:44;3.00;;;2.35;;
75847;SDS011;65750;47.540;19.090;2023-05-23T05:39:13;2.40;;;1.73;;
75847;SDS011;65750;47.540;19.090;2023-05-23T05:41:40;3.12;;;2.05;;
75847;SDS011;65750;47.540;19.090;2023-05-23T05:44:07;3.55;;;2.20;;
75847;SDS011;65750;47.540;19.090;2023-05-23T05:46:35;3.65;;;2.28;;
75847;SDS011;65750;47.540;19.090;2023-05-23T05:49:04;2.90;;;2.25;;
75847;SDS011;65750;47.540;19.090;2023-05-23T05:51:31;3.30;;;2.20;;
75847;SDS011;65750;47.540;19.090;2023-05-23T05:53:58;2.78;;;2.05;;
75847;SDS011;65750;47.540;19.090;2023-05-23T05:56:26;3.20;;;2.47;;
75847;SDS011;65750;47.540;19.090;2023-05-23T05:58:53;2.87;;;2.30;;
75847;SDS011;65750;47.540;19.090;2023-05-23T06:01:21;2.50;;;2.12;;
75847;SDS011;65750;47.540;19.090;2023-05-23T06:03:50;3.60;;;2.17;;
75847;SDS011;65750;47.540;19.090;2023-05-23T06:06:18;3.58;;;2.20;;
75847;SDS011;65750;47.540;19.090;2023-05-23T06:08:46;2.85;;;2.03;;
75847;SDS011;65750;47.540;19.090;2023-05-23T06:11:14;3.20;;;2.28;;
75847;SDS011;65750;47.540;19.090;2023-05-23T06:13:41;3.33;;;2.33;;
75847;SDS011;65750;47.540;19.090;2023-05-23T06:16:08;3.17;;;2.47;;
75847;SDS011;65750;47.540;19.090;2023-05-23T06:18:35;3.40;;;2.50;;
75847;SDS011;65750;47.540;19.090;2023-05-23T06:21:03;3.97;;;2.58;;
75847;SDS011;65750;47.540;19.090;2023-05-23T06:23:32;3.67;;;2.42;;
75847;SDS011;65750;47.540;19.090;2023-05-23T06:26:00;3.30;;;2.60;;
75847;SDS011;65750;47.540;19.090;2023-05-23T06:28:27;3.07;;;2.10;;
75847;SDS011;65750;47.540;19.090;2023-05-23T06:30:54;3.45;;;2.50;;
75847;SDS011;65750;47.540;19.090;2023-05-23T06:33:22;3.50;;;2.62;;
75847;SDS011;65750;47.540;19.090;2023-05-23T06:35:49;4.53;;;2.60;;
75847;SDS011;65750;47.540;19.090;2023-05-23T06:38:16;3.65;;;2.60;;
75847;SDS011;65750;47.540;19.090;2023-05-23T06:40:46;3.70;;;2.50;;
75847;SDS011;65750;47.540;19.090;2023-05-23T06:43:13;4.37;;;2.65;;
75847;SDS011;65750;47.540;19.090;2023-05-23T06:45:44;3.37;;;2.70;;
75847;SDS011;65750;47.540;19.090;2023-05-23T06:48:12;3.75;;;2.70;;
75847;SDS011;65750;47.540;19.090;2023-05-23T06:50:39;4.78;;;2.62;;
75847;SDS011;65750;47.540;19.090;2023-05-23T06:53:07;3.50;;;2.50;;
75847;SDS011;65750;47.540;19.090;2023-05-23T06:55:35;3.53;;;2.90;;
75847;SDS011;65750;47.540;19.090;2023-05-23T06:58:04;3.50;;;2.70;;
75847;SDS011;65750;47.540;19.090;2023-05-23T07:00:32;3.33;;;2.50;;
75847;SDS011;65750;47.540;19.090;2023-05-23T07:03:00;3.70;;;2.72;;
75847;SDS011;65750;47.540;19.090;2023-05-23T07:05:28;3.53;;;2.50;;
75847;SDS011;65750;47.540;19.090;2023-05-23T07:07:57;3.55;;;2.72;;
75847;SDS011;65750;47.540;19.090;2023-05-23T07:10:26;4.15;;;3.03;;
75847;SDS011;65750;47.540;19.090;2023-05-23T07:12:56;4.68;;;3.35;;
75847;SDS011;65750;47.540;19.090;2023-05-23T07:15:25;3.80;;;2.78;;
75847;SDS011;65750;47.540;19.090;2023-05-23T07:17:52;3.57;;;2.83;;
75847;SDS011;65750;47.540;19.090;2023-05-23T07:20:20;4.62;;;3.08;;
75847;SDS011;65750;47.540;19.090;2023-05-23T07:22:47;5.18;;;2.80;;
75847;SDS011;65750;47.540;19.090;2023-05-23T07:25:17;4.07;;;2.87;;
75847;SDS011;65750;47.540;19.090;2023-05-23T07:27:44;4.43;;;3.17;;
75847;SDS011;65750;47.540;19.090;2023-05-23T07:30:12;4.20;;;2.70;;
75847;SDS011;65750;47.540;19.090;2023-05-23T07:32:42;4.62;;;2.83;;
75847;SDS011;65750;47.540;19.090;2023-05-23T07:35:10;4.20;;;2.90;;
75847;SDS011;65750;47.540;19.090;2023-05-23T07:37:37;4.37;;;3.00;;
75847;SDS011;65750;47.540;19.090;2023-05-23T07:40:05;4.60;;;2.95;;
75847;SDS011;65750;47.540;19.090;2023-05-23T07:42:33;4.63;;;3.00;;
75847;SDS011;65750;47.540;19.090;2023-05-23T07:45:00;5.87;;;3.95;;
75847;SDS011;65750;47.540;19.090;2023-05-23T07:47:28;7.55;;;4.32;;
75847;SDS011;65750;47.540;19.090;2023-05-23T07:49:57;9.20;;;5.10;;
75847;SDS011;65750;47.540;19.090;2023-05-23T07:52:28;7.80;;;5.05;;
75847;SDS011;65750;47.540;19.090;2023-05-23T07:54:56;34.70;;;19.17;;
75847;SDS011;65750;47.540;19.090;2023-05-23T07:57:24;87.53;;;35.05;;
75847;SDS011;65750;47.540;19.090;2023-05-23T07:59:52;312.70;;;125.60;;
75847;SDS011;65750;47.540;19.090;2023-05-23T08:02:20;101.28;;;40.08;;
75847;SDS011;65750;47.540;19.090;2023-05-23T08:04:47;196.23;;;78.25;;
75847;SDS011;65750;47.540;19.090;2023-05-23T08:07:16;142.10;;;54.30;;
75847;SDS011;65750;47.540;19.090;2023-05-23T08:09:43;39.45;;;17.87;;
75847;SDS011;65750;47.540;19.090;2023-05-23T08:12:11;110.05;;;46.63;;
75847;SDS011;65750;47.540;19.090;2023-05-23T08:14:38;70.37;;;29.70;;
75847;SDS011;65750;47.540;19.090;2023-05-23T08:17:07;58.53;;;26.92;;
75847;SDS011;65750;47.540;19.090;2023-05-23T08:19:35;26.10;;;12.37;;
75847;SDS011;65750;47.540;19.090;2023-05-23T08:22:02;41.55;;;17.83;;
75847;SDS011;65750;47.540;19.090;2023-05-23T08:24:31;41.03;;;18.77;;
75847;SDS011;65750;47.540;19.090;2023-05-23T08:27:00;41.40;;;16.37;;
75847;SDS011;65750;47.540;19.090;2023-05-23T08:29:27;32.88;;;13.52;;
75847;SDS011;65750;47.540;19.090;2023-05-23T08:31:54;29.63;;;12.87;;
75847;SDS011;65750;47.540;19.090;2023-05-23T08:34:22;27.62;;;13.02;;
75847;SDS011;65750;47.540;19.090;2023-05-23T08:36:49;31.10;;;13.38;;
75847;SDS011;65750;47.540;19.090;2023-05-23T08:39:17;24.95;;;11.93;;
75847;SDS011;65750;47.540;19.090;2023-05-23T08:41:46;25.48;;;12.25;;
75847;SDS011;65750;47.540;19.090;2023-05-23T08:44:13;23.60;;;11.13;;
75847;SDS011;65750;47.540;19.090;2023-05-23T08:46:44;21.87;;;10.90;;
75847;SDS011;65750;47.540;19.090;2023-05-23T08:49:13;22.13;;;10.70;;
75847;SDS011;65750;47.540;19.090;2023-05-23T08:51:43;19.00;;;10.30;;
75847;SDS011;65750;47.540;19.090;2023-05-23T08:54:11;15.95;;;9.00;;
75847;SDS011;65750;47.540;19.090;2023-05-23T08:56:39;15.67;;;8.43;;
75847;SDS011;65750;47.540;19.090;2023-05-23T08:59:09;19.05;;;9.38;;
75847;SDS011;65750;47.540;19.090;2023-05-23T09:01:38;15.10;;;9.07;;
75847;SDS011;65750;47.540;19.090;2023-05-23T09:04:06;17.73;;;8.00;;
75847;SDS011;65750;47.540;19.090;2023-05-23T09:06:34;14.25;;;8.35;;
75847;SDS011;65750;47.540;19.090;2023-05-23T09:09:01;13.93;;;7.87;;
75847;SDS011;65750;47.540;19.090;2023-05-23T09:11:29;15.80;;;7.78;;
75847;SDS011;65750;47.540;19.090;2023-05-23T09:13:59;12.18;;;8.02;;
75847;SDS011;65750;47.540;19.090;2023-05-23T09:16:32;10.48;;;6.55;;
75847;SDS011;65750;47.540;19.090;2023-05-23T09:19:08;11.82;;;7.15;;
75847;SDS011;65750;47.540;19.090;2023-05-23T09:21:36;10.27;;;7.03;;
75847;SDS011;65750;47.540;19.090;2023-05-23T09:24:04;10.95;;;6.70;;
75847;SDS011;65750;47.540;19.090;2023-05-23T09:26:32;17.98;;;9.05;;
75847;SDS011;65750;47.540;19.090;2023-05-23T09:28:59;14.15;;;9.30;;
75847;SDS011;65750;47.540;19.090;2023-05-23T09:31:27;12.02;;;7.60;;
75847;SDS011;65750;47.540;19.090;2023-05-23T09:33:56;14.40;;;7.67;;
75847;SDS011;65750;47.540;19.090;2023-05-23T09:36:23;13.57;;;7.47;;
75847;SDS011;65750;47.540;19.090;2023-05-23T09:38:54;12.65;;;7.25;;
75847;SDS011;65750;47.540;19.090;2023-05-23T09:41:21;15.50;;;7.68;;
75847;SDS011;65750;47.540;19.090;2023-05-23T09:43:49;13.70;;;7.43;;
75847;SDS011;65750;47.540;19.090;2023-05-23T09:46:18;13.77;;;7.13;;
75847;SDS011;65750;47.540;19.090;2023-05-23T09:48:46;11.90;;;6.90;;
75847;SDS011;65750;47.540;19.090;2023-05-23T09:51:14;14.35;;;6.55;;
75847;SDS011;65750;47.540;19.090;2023-05-23T09:53:45;10.68;;;6.03;;
75847;SDS011;65750;47.540;19.090;2023-05-23T09:56:12;13.10;;;7.40;;
75847;SDS011;65750;47.540;19.090;2023-05-23T09:58:42;13.07;;;6.87;;
75847;SDS011;65750;47.540;19.090;2023-05-23T10:01:14;12.23;;;7.55;;
75847;SDS011;65750;47.540;19.090;2023-05-23T10:03:43;13.02;;;7.30;;
75847;SDS011;65750;47.540;19.090;2023-05-23T10:06:14;10.00;;;6.32;;
75847;SDS011;65750;47.540;19.090;2023-05-23T10:08:49;11.75;;;6.55;;
75847;SDS011;65750;47.540;19.090;2023-05-23T10:14:16;10.32;;;6.60;;
75847;SDS011;65750;47.540;19.090;2023-05-23T10:16:48;11.63;;;6.47;;
75847;SDS011;65750;47.540;19.090;2023-05-23T10:19:23;11.15;;;6.70;;
75847;SDS011;65750;47.540;19.090;2023-05-23T10:21:55;11.07;;;6.90;;
75847;SDS011;65750;47.540;19.090;2023-05-23T10:24:25;13.43;;;6.60;;
75847;SDS011;65750;47.540;19.090;2023-05-23T10:26:54;11.18;;;6.70;;
75847;SDS011;65750;47.540;19.090;2023-05-23T10:29:22;11.98;;;6.78;;
75847;SDS011;65750;47.540;19.090;2023-05-23T10:31:51;11.70;;;6.90;;
75847;SDS011;65750;47.540;19.090;2023-05-23T10:34:20;9.88;;;6.43;;
75847;SDS011;65750;47.540;19.090;2023-05-23T10:36:56;9.73;;;6.47;;
75847;SDS011;65750;47.540;19.090;2023-05-23T10:39:29;11.93;;;6.40;;
75847;SDS011;65750;47.540;19.090;2023-05-23T10:42:10;8.07;;;6.45;;
75847;SDS011;65750;47.540;19.090;2023-05-23T10:44:41;9.48;;;6.37;;
75847;SDS011;65750;47.540;19.090;2023-05-23T10:47:08;8.35;;;6.12;;
75847;SDS011;65750;47.540;19.090;2023-05-23T10:49:37;10.50;;;6.30;;
75847;SDS011;65750;47.540;19.090;2023-05-23T10:52:07;7.80;;;6.40;;
75847;SDS011;65750;47.540;19.090;2023-05-23T10:54:36;10.43;;;6.55;;
75847;SDS011;65750;47.540;19.090;2023-05-23T10:57:07;10.02;;;6.30;;
75847;SDS011;65750;47.540;19.090;2023-05-23T10:59:35;13.98;;;6.53;;
75847;SDS011;65750;47.540;19.090;2023-05-23T11:02:03;10.90;;;6.17;;
75847;SDS011;65750;47.540;19.090;2023-05-23T11:04:35;10.55;;;6.70;;
75847;SDS011;65750;47.540;19.090;2023-05-23T11:07:02;8.13;;;5.95;;
75847;SDS011;65750;47.540;19.090;2023-05-23T11:09:30;10.55;;;6.30;;
75847;SDS011;65750;47.540;19.090;2023-05-23T11:12:01;9.30;;;6.30;;
75847;SDS011;65750;47.540;19.090;2023-05-23T11:17:29;9.75;;;6.78;;
75847;SDS011;65750;47.540;19.090;2023-05-23T11:19:57;13.57;;;6.50;;
75847;SDS011;65750;47.540;19.090;2023-05-23T11:22:29;9.73;;;6.30;;
75847;SDS011;65750;47.540;19.090;2023-05-23T11:24:57;10.23;;;6.62;;
75847;SDS011;65750;47.540;19.090;2023-05-23T11:27:26;11.73;;;6.67;;
75847;SDS011;65750;47.540;19.090;2023-05-23T11:29:57;9.48;;;6.70;;
75847;SDS011;65750;47.540;19.090;2023-05-23T11:32:26;8.52;;;6.72;;
75847;SDS011;65750;47.540;19.090;2023-05-23T11:34:55;8.77;;;6.35;;
75847;SDS011;65750;47.540;19.090;2023-05-23T11:37:25;8.55;;;6.97;;
75847;SDS011;65750;47.540;19.090;2023-05-23T11:39:53;7.97;;;6.43;;
75847;SDS011;65750;47.540;19.090;2023-05-23T11:42:21;9.20;;;6.80;;
75847;SDS011;65750;47.540;19.090;2023-05-23T11:44:49;7.65;;;6.47;;
75847;SDS011;65750;47.540;19.090;2023-05-23T11:47:16;21.25;;;12.45;;
75847;SDS011;65750;47.540;19.090;2023-05-23T11:49:44;149.23;;;73.90;;
75847;SDS011;65750;47.540;19.090;2023-05-23T11:52:12;339.73;;;216.57;;
75847;SDS011;65750;47.540;19.090;2023-05-23T11:54:40;153.20;;;85.60;;
75847;SDS011;65750;47.540;19.090;2023-05-23T11:57:07;180.65;;;98.12;;
75847;SDS011;65750;47.540;19.090;2023-05-23T11:59:36;155.23;;;84.90;;
75847;SDS011;65750;47.540;19.090;2023-05-23T12:02:05;153.45;;;81.20;;
75847;SDS011;65750;47.540;19.090;2023-05-23T12:04:33;171.80;;;89.10;;
75847;SDS011;65750;47.540;19.090;2023-05-23T12:07:03;144.20;;;75.62;;
75847;SDS011;65750;47.540;19.090;2023-05-23T12:09:30;112.43;;;59.28;;
75847;SDS011;65750;47.540;19.090;2023-05-23T12:11:58;86.03;;;45.42;;
75847;SDS011;65750;47.540;19.090;2023-05-23T12:14:27;89.20;;;45.95;;
75847;SDS011;65750;47.540;19.090;2023-05-23T12:16:56;65.07;;;32.50;;
75847;SDS011;65750;47.540;19.090;2023-05-23T12:19:23;76.45;;;40.95;;
75847;SDS011;65750;47.540;19.090;2023-05-23T12:21:50;62.15;;;33.28;;
75847;SDS011;65750;47.540;19.090;2023-05-23T12:24:17;66.95;;;35.95;;
75847;SDS011;65750;47.540;19.090;2023-05-23T12:26:46;59.33;;;31.70;;
75847;SDS011;65750;47.540;19.090;2023-05-23T12:29:14;50.50;;;28.30;;
75847;SDS011;65750;47.540;19.090;2023-05-23T12:31:42;55.67;;;29.10;;
75847;SDS011;65750;47.540;19.090;2023-05-23T12:34:11;50.05;;;26.50;;
75847;SDS011;65750;47.540;19.090;2023-05-23T12:36:39;44.72;;;24.50;;
75847;SDS011;65750;47.540;19.090;2023-05-23T12:39:07;34.97;;;20.48;;
75847;SDS011;65750;47.540;19.090;2023-05-23T12:41:34;29.77;;;16.23;;
75847;SDS011;65750;47.540;19.090;2023-05-23T12:44:02;35.25;;;18.52;;
75847;SDS011;65750;47.540;19.090;2023-05-23T12:46:41;30.58;;;18.27;;
75847;SDS011;65750;47.540;19.090;2023-05-23T12:49:09;30.80;;;17.50;;
75847;SDS011;65750;47.540;19.090;2023-05-23T12:51:38;28.52;;;16.87;;
75847;SDS011;65750;47.540;19.090;2023-05-23T12:54:07;24.53;;;14.17;;
75847;SDS011;65750;47.540;19.090;2023-05-23T12:56:34;23.65;;;14.10;;
75847;SDS011;65750;47.540;19.090;2023-05-23T12:59:02;17.98;;;10.98;;
75847;SDS011;65750;47.540;19.090;2023-05-23T13:01:29;17.83;;;10.68;;
75847;SDS011;65750;47.540;19.090;2023-05-23T13:03:58;17.67;;;10.73;;
75847;SDS011;65750;47.540;19.090;2023-05-23T13:06:27;18.77;;;10.30;;
75847;SDS011;65750;47.540;19.090;2023-05-23T13:08:54;15.52;;;10.13;;
75847;SDS011;65750;47.540;19.090;2023-05-23T13:11:22;17.55;;;9.68;;
75847;SDS011;65750;47.540;19.090;2023-05-23T13:13:49;17.30;;;9.13;;
75847;SDS011;65750;47.540;19.090;2023-05-23T13:16:17;11.98;;;7.82;;
75847;SDS011;65750;47.540;19.090;2023-05-23T13:18:44;13.50;;;7.87;;
75847;SDS011;65750;47.540;19.090;2023-05-23T13:21:11;9.73;;;7.35;;
75847;SDS011;65750;47.540;19.090;2023-05-23T13:23:40;9.32;;;6.80;;
75847;SDS011;65750;47.540;19.090;2023-05-23T13:26:07;12.60;;;7.20;;
75847;SDS011;65750;47.540;19.090;2023-05-23T13:28:34;11.10;;;7.15;;
75847;SDS011;65750;47.540;19.090;2023-05-23T13:31:01;9.53;;;6.33;;
75847;SDS011;65750;47.540;19.090;2023-05-23T13:33:28;11.38;;;6.93;;
75847;SDS011;65750;47.540;19.090;2023-05-23T13:35:56;8.38;;;6.32;;
75847;SDS011;65750;47.540;19.090;2023-05-23T13:38:23;10.63;;;6.53;;
75847;SDS011;65750;47.540;19.090;2023-05-23T13:40:53;9.75;;;6.65;;
75847;SDS011;65750;47.540;19.090;2023-05-23T13:43:21;10.40;;;6.33;;
75847;SDS011;65750;47.540;19.090;2023-05-23T13:45:48;8.43;;;6.50;;
75847;SDS011;65750;47.540;19.090;2023-05-23T13:48:15;8.95;;;6.93;;
75847;SDS011;65750;47.540;19.090;2023-05-23T13:50:43;9.52;;;6.05;;
75847;SDS011;65750;47.540;19.090;2023-05-23T13:53:10;9.68;;;6.20;;
75847;SDS011;65750;47.540;19.090;2023-05-23T13:55:41;10.17;;;6.63;;
75847;SDS011;65750;47.540;19.090;2023-05-23T13:58:11;9.05;;;6.50;;
75847;SDS011;65750;47.540;19.090;2023-05-23T14:00:38;7.70;;;6.25;;
75847;SDS011;65750;47.540;19.090;2023-05-23T14:03:06;8.48;;;6.20;;
75847;SDS011;65750;47.540;19.090;2023-05-23T14:05:33;8.05;;;6.15;;
75847;SDS011;65750;47.540;19.090;2023-05-23T14:08:00;8.50;;;6.13;;
75847;SDS011;65750;47.540;19.090;2023-05-23T14:10:29;7.85;;;6.05;;
75847;SDS011;65750;47.540;19.090;2023-05-23T14:12:57;7.28;;;5.50;;
75847;SDS011;65750;47.540;19.090;2023-05-23T14:15:26;7.65;;;5.50;;
75847;SDS011;65750;47.540;19.090;2023-05-23T14:17:53;7.75;;;5.40;;
75847;SDS011;65750;47.540;19.090;2023-05-23T14:20:21;9.77;;;5.43;;
75847;SDS011;65750;47.540;19.090;2023-05-23T14:22:48;7.75;;;5.20;;
75847;SDS011;65750;47.540;19.090;2023-05-23T14:25:16;7.20;;;5.35;;
75847;SDS011;65750;47.540;19.090;2023-05-23T14:27:43;9.13;;;5.37;;
75847;SDS011;65750;47.540;19.090;2023-05-23T14:30:11;8.48;;;5.53;;
75847;SDS011;65750;47.540;19.090;2023-05-23T14:32:40;7.77;;;5.37;;
75847;SDS011;65750;47.540;19.090;2023-05-23T14:35:08;7.97;;;5.43;;
75847;SDS011;65750;47.540;19.090;2023-05-23T14:37:36;7.80;;;5.18;;
75847;SDS011;65750;47.540;19.090;2023-05-23T14:40:04;5.75;;;4.68;;
75847;SDS011;65750;47.540;19.090;2023-05-23T14:42:34;8.93;;;5.75;;